sensor_id;sensor_type;location;lat;lon;timestamp;pressure;altitude;pressure_sealevel;temperature;humidity
34328;BME280;20588;48.840;10.064;2022-12-31T00:01:53;96266.31;;;12.38;nan
34328;BME280;20588;48.840;10.064;2022-12-31T00:04:19;96267.13;;;12.38;nan
34328;BME280;20588;48.840;10.064;2022-12-31T00:06:46;96273.72;;;12.34;nan
34328;BME280;20588;48.840;10.064;2022-12-31T00:09:12;96273.38;;;12.42;nan
34328;BME280;20588;48.840;10.064;2022-12-31T00:11:38;96269.69;;;12.38;nan
34328;BME280;20588;48.840;10.064;2022-12-31T00:14:05;96260.59;;;12.36;nan
34328;BME280;20588;48.840;10.064;2022-12-31T00:16:34;96265.75;;;12.36;nan
34328;BME280;20588;48.840;10.064;2022-12-31T00:19:01;96264.88;;;12.30;nan
34328;BME280;20588;48.840;10.064;2022-12-31T00:21:29;96269.34;;;12.35;nan
34328;BME280;20588;48.840;10.064;2022-12-31T00:23:55;96268.09;;;12.49;nan
34328;BME280;20588;48.840;10.064;2022-12-31T00:26:23;96278.19;;;12.39;nan
34328;BME280;20588;48.840;10.064;2022-12-31T00:28:51;96282.47;;;12.33;nan
34328;BME280;20588;48.840;10.064;2022-12-31T00:31:25;96280.91;;;12.32;nan
34328;BME280;20588;48.840;10.064;2022-12-31T00:33:52;96285.50;;;12.30;nan
34328;BME280;20588;48.840;10.064;2022-12-31T00:38:53;96286.16;;;12.37;nan
34328;BME280;20588;48.840;10.064;2022-12-31T00:41:20;96289.19;;;12.34;nan
34328;BME280;20588;48.840;10.064;2022-12-31T00:43:46;96297.16;;;12.33;nan
34328;BME280;20588;48.840;10.064;2022-12-31T00:46:13;96303.13;;;12.33;nan
34328;BME280;20588;48.840;10.064;2022-12-31T00:48:39;96300.78;;;12.32;nan
34328;BME280;20588;48.840;10.064;2022-12-31T00:51:07;96308.28;;;12.33;nan
34328;BME280;20588;48.840;10.064;2022-12-31T00:53:33;96307.03;;;12.36;nan
34328;BME280;20588;48.840;10.064;2022-12-31T00:56:01;96308.25;;;12.45;nan
34328;BME280;20588;48.840;10.064;2022-12-31T00:58:28;96316.69;;;12.52;nan
34328;BME280;20588;48.840;10.064;2022-12-31T01:00:54;96315.22;;;12.67;nan
34328;BME280;20588;48.840;10.064;2022-12-31T01:03:21;96320.59;;;12.66;nan
34328;BME280;20588;48.840;10.064;2022-12-31T01:05:47;96322.97;;;12.67;nan
34328;BME280;20588;48.840;10.064;2022-12-31T01:08:15;96319.13;;;12.70;nan
34328;BME280;20588;48.840;10.064;2022-12-31T01:10:41;96327.66;;;12.70;nan
34328;BME280;20588;48.840;10.064;2022-12-31T01:13:26;96323.03;;;12.72;nan
34328;BME280;20588;48.840;10.064;2022-12-31T01:15:52;96329.56;;;12.75;nan
34328;BME280;20588;48.840;10.064;2022-12-31T01:18:18;96319.53;;;12.78;nan
34328;BME280;20588;48.840;10.064;2022-12-31T01:20:44;96332.13;;;12.87;nan
34328;BME280;20588;48.840;10.064;2022-12-31T01:23:10;96321.19;;;12.96;nan
34328;BME280;20588;48.840;10.064;2022-12-31T01:25:39;96332.66;;;13.00;nan
34328;BME280;20588;48.840;10.064;2022-12-31T01:28:08;96329.16;;;13.06;nan
34328;BME280;20588;48.840;10.064;2022-12-31T01:30:38;96331.53;;;13.08;nan
34328;BME280;20588;48.840;10.064;2022-12-31T01:33:04;96331.06;;;13.11;nan
34328;BME280;20588;48.840;10.064;2022-12-31T01:35:34;96329.56;;;13.15;nan
34328;BME280;20588;48.840;10.064;2022-12-31T01:38:00;96337.53;;;13.25;nan
34328;BME280;20588;48.840;10.064;2022-12-31T01:40:27;96331.34;;;13.26;nan
34328;BME280;20588;48.840;10.064;2022-12-31T01:42:54;96341.78;;;13.31;nan
34328;BME280;20588;48.840;10.064;2022-12-31T01:45:21;96318.63;;;13.36;nan
34328;BME280;20588;48.840;10.064;2022-12-31T01:47:55;96338.13;;;13.43;nan
34328;BME280;20588;48.840;10.064;2022-12-31T01:50:27;96339.78;;;13.49;nan
34328;BME280;20588;48.840;10.064;2022-12-31T01:52:58;96336.97;;;13.51;nan
34328;BME280;20588;48.840;10.064;2022-12-31T01:55:35;96360.53;;;13.54;nan
34328;BME280;20588;48.840;10.064;2022-12-31T01:58:16;96347.72;;;13.59;nan
34328;BME280;20588;48.840;10.064;2022-12-31T02:00:43;96353.91;;;13.58;nan
34328;BME280;20588;48.840;10.064;2022-12-31T02:03:10;96356.34;;;13.65;nan
34328;BME280;20588;48.840;10.064;2022-12-31T02:08:16;96367.72;;;13.64;nan
34328;BME280;20588;48.840;10.064;2022-12-31T02:10:42;96357.47;;;13.69;nan
34328;BME280;20588;48.840;10.064;2022-12-31T02:13:09;96371.16;;;13.69;nan
34328;BME280;20588;48.840;10.064;2022-12-31T02:15:46;96360.50;;;13.66;nan
34328;BME280;20588;48.840;10.064;2022-12-31T02:26:49;96368.97;;;13.61;nan
34328;BME280;20588;48.840;10.064;2022-12-31T02:35:14;96370.84;;;13.66;nan
34328;BME280;20588;48.840;10.064;2022-12-31T02:37:48;96379.31;;;13.61;nan
34328;BME280;20588;48.840;10.064;2022-12-31T02:40:19;96378.28;;;13.62;nan
34328;BME280;20588;48.840;10.064;2022-12-31T02:42:45;96362.13;;;13.55;nan
34328;BME280;20588;48.840;10.064;2022-12-31T02:45:14;96386.72;;;13.58;nan
34328;BME280;20588;48.840;10.064;2022-12-31T02:51:18;96382.84;;;13.44;nan
34328;BME280;20588;48.840;10.064;2022-12-31T02:59:25;96373.75;;;13.41;nan
34328;BME280;20588;48.840;10.064;2022-12-31T03:02:16;96380.03;;;13.45;nan
34328;BME280;20588;48.840;10.064;2022-12-31T03:04:51;96381.06;;;13.44;nan
34328;BME280;20588;48.840;10.064;2022-12-31T03:07:20;96387.78;;;13.45;nan
34328;BME280;20588;48.840;10.064;2022-12-31T03:09:47;96384.84;;;13.53;nan
34328;BME280;20588;48.840;10.064;2022-12-31T03:12:14;96384.94;;;13.58;nan
34328;BME280;20588;48.840;10.064;2022-12-31T03:14:59;96395.91;;;13.65;nan
34328;BME280;20588;48.840;10.064;2022-12-31T03:17:25;96388.25;;;13.70;nan
34328;BME280;20588;48.840;10.064;2022-12-31T03:19:51;96393.28;;;13.77;nan
34328;BME280;20588;48.840;10.064;2022-12-31T03:22:38;96388.19;;;13.82;nan
34328;BME280;20588;48.840;10.064;2022-12-31T03:27:52;96393.47;;;13.87;nan
34328;BME280;20588;48.840;10.064;2022-12-31T03:30:19;96396.03;;;13.87;nan
34328;BME280;20588;48.840;10.064;2022-12-31T03:32:47;96391.41;;;13.89;nan
34328;BME280;20588;48.840;10.064;2022-12-31T03:35:14;96390.09;;;14.03;nan
34328;BME280;20588;48.840;10.064;2022-12-31T03:37:42;96401.81;;;14.05;nan
34328;BME280;20588;48.840;10.064;2022-12-31T03:40:09;96394.91;;;14.11;nan
34328;BME280;20588;48.840;10.064;2022-12-31T03:42:36;96390.75;;;14.10;nan
34328;BME280;20588;48.840;10.064;2022-12-31T03:45:03;96392.06;;;14.12;nan
34328;BME280;20588;48.840;10.064;2022-12-31T03:47:29;96393.94;;;14.17;nan
34328;BME280;20588;48.840;10.064;2022-12-31T03:49:55;96396.16;;;14.08;nan
34328;BME280;20588;48.840;10.064;2022-12-31T03:52:21;96393.81;;;14.07;nan
34328;BME280;20588;48.840;10.064;2022-12-31T03:54:47;96390.97;;;14.08;nan
34328;BME280;20588;48.840;10.064;2022-12-31T03:57:13;96383.69;;;14.05;nan
34328;BME280;20588;48.840;10.064;2022-12-31T03:59:39;96396.44;;;14.12;nan
34328;BME280;20588;48.840;10.064;2022-12-31T04:02:06;96392.88;;;14.13;nan
34328;BME280;20588;48.840;10.064;2022-12-31T04:04:32;96404.78;;;14.14;nan
34328;BME280;20588;48.840;10.064;2022-12-31T04:06:58;96409.47;;;14.17;nan
34328;BME280;20588;48.840;10.064;2022-12-31T04:09:24;96416.66;;;14.26;nan
34328;BME280;20588;48.840;10.064;2022-12-31T04:11:50;96423.72;;;14.31;nan
34328;BME280;20588;48.840;10.064;2022-12-31T04:14:16;96421.19;;;14.36;nan
34328;BME280;20588;48.840;10.064;2022-12-31T04:16:43;96421.59;;;14.44;nan
34328;BME280;20588;48.840;10.064;2022-12-31T04:19:09;96415.72;;;14.49;nan
34328;BME280;20588;48.840;10.064;2022-12-31T04:21:35;96411.06;;;14.51;nan
34328;BME280;20588;48.840;10.064;2022-12-31T04:24:02;96427.16;;;14.53;nan
34328;BME280;20588;48.840;10.064;2022-12-31T04:26:28;96421.19;;;14.52;nan
34328;BME280;20588;48.840;10.064;2022-12-31T04:28:54;96427.00;;;14.60;nan
34328;BME280;20588;48.840;10.064;2022-12-31T04:31:20;96421.59;;;14.61;nan
34328;BME280;20588;48.840;10.064;2022-12-31T04:33:46;96432.56;;;14.68;nan
34328;BME280;20588;48.840;10.064;2022-12-31T04:36:12;96432.09;;;14.71;nan
34328;BME280;20588;48.840;10.064;2022-12-31T04:38:39;96433.69;;;14.72;nan
34328;BME280;20588;48.840;10.064;2022-12-31T04:41:05;96437.59;;;14.75;nan
34328;BME280;20588;48.840;10.064;2022-12-31T04:43:44;96439.38;;;14.74;nan
34328;BME280;20588;48.840;10.064;2022-12-31T04:46:11;96440.78;;;14.82;nan
34328;BME280;20588;48.840;10.064;2022-12-31T04:48:37;96446.38;;;14.90;nan
34328;BME280;20588;48.840;10.064;2022-12-31T04:51:03;96437.56;;;14.91;nan
34328;BME280;20588;48.840;10.064;2022-12-31T04:53:30;96447.94;;;14.91;nan
34328;BME280;20588;48.840;10.064;2022-12-31T04:55:56;96440.16;;;14.91;nan
34328;BME280;20588;48.840;10.064;2022-12-31T04:58:22;96445.41;;;14.96;nan
34328;BME280;20588;48.840;10.064;2022-12-31T05:00:50;96439.50;;;15.01;nan
34328;BME280;20588;48.840;10.064;2022-12-31T05:03:19;96435.34;;;15.00;nan
34328;BME280;20588;48.840;10.064;2022-12-31T05:05:46;96433.38;;;15.07;nan
34328;BME280;20588;48.840;10.064;2022-12-31T05:08:12;96434.69;;;15.09;nan
34328;BME280;20588;48.840;10.064;2022-12-31T05:10:43;96439.31;;;15.07;nan
34328;BME280;20588;48.840;10.064;2022-12-31T05:13:10;96443.50;;;15.08;nan
34328;BME280;20588;48.840;10.064;2022-12-31T05:15:36;96445.53;;;15.06;nan
34328;BME280;20588;48.840;10.064;2022-12-31T05:18:02;96463.28;;;15.14;nan
34328;BME280;20588;48.840;10.064;2022-12-31T05:20:29;96464.53;;;15.12;nan
34328;BME280;20588;48.840;10.064;2022-12-31T05:22:55;96464.53;;;15.12;nan
34328;BME280;20588;48.840;10.064;2022-12-31T05:25:21;96465.63;;;15.16;nan
34328;BME280;20588;48.840;10.064;2022-12-31T05:27:47;96466.13;;;15.13;nan
34328;BME280;20588;48.840;10.064;2022-12-31T05:30:13;96466.00;;;15.24;nan
34328;BME280;20588;48.840;10.064;2022-12-31T05:32:39;96457.38;;;15.19;nan
34328;BME280;20588;48.840;10.064;2022-12-31T05:35:06;96467.03;;;15.23;nan
34328;BME280;20588;48.840;10.064;2022-12-31T05:37:33;96470.38;;;15.24;nan
34328;BME280;20588;48.840;10.064;2022-12-31T05:39:59;96467.38;;;15.32;nan
34328;BME280;20588;48.840;10.064;2022-12-31T05:42:25;96474.09;;;15.28;nan
34328;BME280;20588;48.840;10.064;2022-12-31T05:44:51;96471.72;;;15.26;nan
34328;BME280;20588;48.840;10.064;2022-12-31T05:47:17;96473.88;;;15.34;nan
34328;BME280;20588;48.840;10.064;2022-12-31T05:49:43;96503.69;;;15.32;nan
34328;BME280;20588;48.840;10.064;2022-12-31T05:52:10;96497.22;;;15.34;nan
34328;BME280;20588;48.840;10.064;2022-12-31T05:54:36;96495.97;;;15.37;nan
34328;BME280;20588;48.840;10.064;2022-12-31T05:57:03;96503.75;;;15.37;nan
34328;BME280;20588;48.840;10.064;2022-12-31T05:59:29;96496.69;;;15.32;nan
34328;BME280;20588;48.840;10.064;2022-12-31T06:01:55;96498.81;;;15.35;nan
34328;BME280;20588;48.840;10.064;2022-12-31T06:04:21;96503.22;;;15.35;nan
34328;BME280;20588;48.840;10.064;2022-12-31T06:06:48;96504.47;;;15.32;nan
34328;BME280;20588;48.840;10.064;2022-12-31T06:09:15;96503.38;;;15.28;nan
34328;BME280;20588;48.840;10.064;2022-12-31T06:11:42;96503.38;;;15.28;nan
34328;BME280;20588;48.840;10.064;2022-12-31T06:14:08;96505.00;;;15.34;nan
34328;BME280;20588;48.840;10.064;2022-12-31T06:16:34;96500.31;;;15.31;nan
34328;BME280;20588;48.840;10.064;2022-12-31T06:19:01;96505.25;;;15.33;nan
34328;BME280;20588;48.840;10.064;2022-12-31T06:21:29;96504.25;;;15.34;nan
34328;BME280;20588;48.840;10.064;2022-12-31T06:23:55;96506.69;;;15.40;nan
34328;BME280;20588;48.840;10.064;2022-12-31T06:26:21;96500.47;;;15.41;nan
34328;BME280;20588;48.840;10.064;2022-12-31T06:28:47;96514.69;;;15.39;nan
34328;BME280;20588;48.840;10.064;2022-12-31T06:31:14;96531.50;;;15.36;nan
34328;BME280;20588;48.840;10.064;2022-12-31T06:33:40;96527.81;;;15.32;nan
34328;BME280;20588;48.840;10.064;2022-12-31T06:36:10;96526.22;;;15.31;nan
34328;BME280;20588;48.840;10.064;2022-12-31T06:38:38;96534.56;;;15.33;nan
34328;BME280;20588;48.840;10.064;2022-12-31T06:41:10;96533.53;;;15.34;nan
34328;BME280;20588;48.840;10.064;2022-12-31T06:43:37;96533.63;;;15.39;nan
34328;BME280;20588;48.840;10.064;2022-12-31T06:46:05;96546.06;;;15.37;nan
34328;BME280;20588;48.840;10.064;2022-12-31T06:48:32;96536.91;;;15.35;nan
34328;BME280;20588;48.840;10.064;2022-12-31T06:51:06;96529.50;;;15.38;nan
34328;BME280;20588;48.840;10.064;2022-12-31T06:53:32;96532.53;;;15.35;nan
34328;BME280;20588;48.840;10.064;2022-12-31T06:56:05;96528.91;;;15.36;nan
34328;BME280;20588;48.840;10.064;2022-12-31T06:58:32;96540.88;;;15.37;nan
34328;BME280;20588;48.840;10.064;2022-12-31T07:03:58;96538.28;;;15.37;nan
34328;BME280;20588;48.840;10.064;2022-12-31T07:06:40;96542.22;;;15.40;nan
34328;BME280;20588;48.840;10.064;2022-12-31T07:09:26;96543.78;;;15.41;nan
34328;BME280;20588;48.840;10.064;2022-12-31T07:12:25;96538.34;;;15.42;nan
34328;BME280;20588;48.840;10.064;2022-12-31T07:15:01;96555.03;;;15.46;nan
34328;BME280;20588;48.840;10.064;2022-12-31T07:20:16;96559.66;;;15.44;nan
34328;BME280;20588;48.840;10.064;2022-12-31T07:22:44;96558.13;;;15.48;nan
34328;BME280;20588;48.840;10.064;2022-12-31T07:25:17;96549.28;;;15.44;nan
34328;BME280;20588;48.840;10.064;2022-12-31T07:30:28;96565.63;;;15.45;nan
34328;BME280;20588;48.840;10.064;2022-12-31T07:38:27;96555.38;;;15.55;nan
34328;BME280;20588;48.840;10.064;2022-12-31T07:41:09;96565.44;;;15.51;nan
34328;BME280;20588;48.840;10.064;2022-12-31T07:43:52;96563.31;;;15.48;nan
34328;BME280;20588;48.840;10.064;2022-12-31T07:49:12;96566.72;;;15.49;nan
34328;BME280;20588;48.840;10.064;2022-12-31T07:51:39;96571.75;;;15.55;nan
34328;BME280;20588;48.840;10.064;2022-12-31T07:54:05;96578.56;;;15.61;nan
34328;BME280;20588;48.840;10.064;2022-12-31T07:56:32;96573.25;;;15.73;nan
34328;BME280;20588;48.840;10.064;2022-12-31T08:02:19;96574.66;;;15.80;nan
34328;BME280;20588;48.840;10.064;2022-12-31T08:07:23;96578.69;;;15.71;nan
34328;BME280;20588;48.840;10.064;2022-12-31T08:12:34;96589.63;;;15.73;nan
34328;BME280;20588;48.840;10.064;2022-12-31T08:15:01;96594.34;;;15.76;nan
34328;BME280;20588;48.840;10.064;2022-12-31T08:17:27;96596.69;;;15.78;nan
34328;BME280;20588;48.840;10.064;2022-12-31T08:19:54;96595.91;;;15.77;nan
34328;BME280;20588;48.840;10.064;2022-12-31T08:30:07;96597.81;;;15.65;nan
34328;BME280;20588;48.840;10.064;2022-12-31T08:38:06;96613.66;;;15.85;nan
34328;BME280;20588;48.840;10.064;2022-12-31T08:46:02;96614.53;;;16.39;nan
34328;BME280;20588;48.840;10.064;2022-12-31T08:48:41;96617.94;;;16.40;nan
34328;BME280;20588;48.840;10.064;2022-12-31T08:51:14;96615.88;;;16.42;nan
34328;BME280;20588;48.840;10.064;2022-12-31T08:53:42;96610.63;;;16.58;nan
34328;BME280;20588;48.840;10.064;2022-12-31T08:56:31;96608.00;;;17.48;nan
34328;BME280;20588;48.840;10.064;2022-12-31T09:07:37;96577.47;;;22.41;nan
34328;BME280;20588;48.840;10.064;2022-12-31T09:10:20;96600.97;;;22.88;nan
34328;BME280;20588;48.840;10.064;2022-12-31T09:15:51;96632.38;;;20.89;nan
34328;BME280;20588;48.840;10.064;2022-12-31T09:18:21;96630.38;;;20.28;nan
34328;BME280;20588;48.840;10.064;2022-12-31T09:20:49;96629.22;;;19.55;nan
34328;BME280;20588;48.840;10.064;2022-12-31T09:23:15;96636.81;;;19.36;nan
34328;BME280;20588;48.840;10.064;2022-12-31T09:25:56;96636.25;;;18.94;nan
34328;BME280;20588;48.840;10.064;2022-12-31T09:34:11;96643.31;;;18.27;nan
34328;BME280;20588;48.840;10.064;2022-12-31T09:36:49;96647.75;;;18.22;nan
34328;BME280;20588;48.840;10.064;2022-12-31T09:39:32;96644.31;;;18.11;nan
34328;BME280;20588;48.840;10.064;2022-12-31T09:45:09;96643.03;;;18.24;nan
34328;BME280;20588;48.840;10.064;2022-12-31T09:48:14;96657.03;;;18.59;nan
34328;BME280;20588;48.840;10.064;2022-12-31T09:53:40;96648.34;;;21.26;nan
34328;BME280;20588;48.840;10.064;2022-12-31T09:56:22;96647.72;;;23.04;nan
34328;BME280;20588;48.840;10.064;2022-12-31T10:01:37;96643.16;;;26.23;nan
34328;BME280;20588;48.840;10.064;2022-12-31T10:09:53;96656.59;;;29.14;nan
34328;BME280;20588;48.840;10.064;2022-12-31T10:15:15;96649.38;;;29.14;nan
34328;BME280;20588;48.840;10.064;2022-12-31T10:23:56;96654.13;;;26.48;nan
34328;BME280;20588;48.840;10.064;2022-12-31T10:26:45;96652.38;;;27.25;nan
34328;BME280;20588;48.840;10.064;2022-12-31T10:32:17;96647.66;;;28.48;nan
34328;BME280;20588;48.840;10.064;2022-12-31T10:34:55;96640.13;;;27.83;nan
34328;BME280;20588;48.840;10.064;2022-12-31T10:37:40;96640.22;;;28.91;nan
34328;BME280;20588;48.840;10.064;2022-12-31T10:40:28;96618.25;;;29.56;nan
34328;BME280;20588;48.840;10.064;2022-12-31T10:46:12;96633.44;;;30.48;nan
34328;BME280;20588;48.840;10.064;2022-12-31T10:51:58;96624.81;;;30.27;nan
34328;BME280;20588;48.840;10.064;2022-12-31T11:00:24;96629.47;;;31.61;nan
34328;BME280;20588;48.840;10.064;2022-12-31T11:17:23;96617.44;;;30.84;nan
34328;BME280;20588;48.840;10.064;2022-12-31T11:20:09;96620.34;;;31.62;nan
34328;BME280;20588;48.840;10.064;2022-12-31T11:23:19;96625.44;;;32.45;nan
34328;BME280;20588;48.840;10.064;2022-12-31T11:26:04;96691.41;;;32.82;nan
34328;BME280;20588;48.840;10.064;2022-12-31T11:31:19;96615.59;;;31.99;nan
34328;BME280;20588;48.840;10.064;2022-12-31T11:36:57;96605.66;;;32.46;nan
34328;BME280;20588;48.840;10.064;2022-12-31T11:44:58;96601.38;;;32.10;nan
34328;BME280;20588;48.840;10.064;2022-12-31T11:47:56;96594.00;;;31.88;nan
34328;BME280;20588;48.840;10.064;2022-12-31T11:50:54;96587.88;;;30.62;nan
34328;BME280;20588;48.840;10.064;2022-12-31T11:56:19;96591.44;;;29.69;nan
34328;BME280;20588;48.840;10.064;2022-12-31T11:58:52;96594.88;;;29.37;nan
34328;BME280;20588;48.840;10.064;2022-12-31T12:01:49;96591.34;;;29.90;nan
34328;BME280;20588;48.840;10.064;2022-12-31T12:04:10;96588.09;;;30.57;nan
34328;BME280;20588;48.840;10.064;2022-12-31T12:06:38;96595.97;;;30.65;nan
34328;BME280;20588;48.840;10.064;2022-12-31T12:09:09;96588.13;;;30.45;nan
34328;BME280;20588;48.840;10.064;2022-12-31T12:11:40;96591.84;;;30.68;nan
34328;BME280;20588;48.840;10.064;2022-12-31T12:14:29;96587.16;;;30.89;nan
34328;BME280;20588;48.840;10.064;2022-12-31T12:16:57;96580.31;;;30.88;nan
34328;BME280;20588;48.840;10.064;2022-12-31T12:19:26;96577.88;;;30.71;nan
34328;BME280;20588;48.840;10.064;2022-12-31T12:21:55;96584.56;;;30.53;nan
34328;BME280;20588;48.840;10.064;2022-12-31T12:24:28;96578.50;;;30.16;nan
34328;BME280;20588;48.840;10.064;2022-12-31T12:26:55;96571.28;;;29.56;nan
34328;BME280;20588;48.840;10.064;2022-12-31T12:29:32;96580.16;;;29.28;nan
34328;BME280;20588;48.840;10.064;2022-12-31T12:32:05;96572.81;;;29.13;nan
34328;BME280;20588;48.840;10.064;2022-12-31T12:34:38;96573.38;;;28.98;nan
34328;BME280;20588;48.840;10.064;2022-12-31T12:37:23;96576.00;;;28.65;nan
34328;BME280;20588;48.840;10.064;2022-12-31T12:40:06;96576.53;;;28.79;nan
34328;BME280;20588;48.840;10.064;2022-12-31T12:42:47;96575.22;;;28.65;nan
34328;BME280;20588;48.840;10.064;2022-12-31T12:45:20;96565.53;;;28.19;nan
34328;BME280;20588;48.840;10.064;2022-12-31T12:47:48;96566.13;;;27.58;nan
34328;BME280;20588;48.840;10.064;2022-12-31T12:50:17;96561.09;;;27.02;nan
34328;BME280;20588;48.840;10.064;2022-12-31T12:52:51;96563.41;;;26.52;nan
34328;BME280;20588;48.840;10.064;2022-12-31T13:01:11;96567.41;;;24.79;nan
34328;BME280;20588;48.840;10.064;2022-12-31T13:04:14;96570.13;;;24.39;nan
34328;BME280;20588;48.840;10.064;2022-12-31T13:15:13;96558.41;;;23.23;nan
34328;BME280;20588;48.840;10.064;2022-12-31T13:23:53;96556.53;;;22.59;nan
34328;BME280;20588;48.840;10.064;2022-12-31T13:26:51;96558.84;;;22.61;nan
34328;BME280;20588;48.840;10.064;2022-12-31T13:29:23;96555.22;;;21.73;nan
34328;BME280;20588;48.840;10.064;2022-12-31T13:31:51;96558.75;;;21.06;nan
34328;BME280;20588;48.840;10.064;2022-12-31T13:34:44;96555.09;;;20.63;nan
34328;BME280;20588;48.840;10.064;2022-12-31T13:37:31;96562.13;;;20.29;nan
34328;BME280;20588;48.840;10.064;2022-12-31T13:40:17;96554.03;;;20.26;nan
34328;BME280;20588;48.840;10.064;2022-12-31T13:42:57;96567.53;;;20.43;nan
34328;BME280;20588;48.840;10.064;2022-12-31T13:45:29;96564.34;;;19.92;nan
34328;BME280;20588;48.840;10.064;2022-12-31T13:48:06;96553.72;;;19.58;nan
34328;BME280;20588;48.840;10.064;2022-12-31T13:50:51;96551.44;;;19.22;nan
34328;BME280;20588;48.840;10.064;2022-12-31T13:53:58;96549.59;;;18.57;nan
34328;BME280;20588;48.840;10.064;2022-12-31T13:56:23;96549.84;;;18.46;nan
34328;BME280;20588;48.840;10.064;2022-12-31T13:58:59;96557.69;;;18.51;nan
34328;BME280;20588;48.840;10.064;2022-12-31T14:04:46;96568.25;;;18.19;nan
34328;BME280;20588;48.840;10.064;2022-12-31T14:07:21;96561.22;;;18.20;nan
34328;BME280;20588;48.840;10.064;2022-12-31T14:09:48;96564.56;;;18.05;nan
34328;BME280;20588;48.840;10.064;2022-12-31T14:15:25;96572.34;;;17.90;nan
34328;BME280;20588;48.840;10.064;2022-12-31T14:26:38;96569.94;;;17.42;nan
34328;BME280;20588;48.840;10.064;2022-12-31T14:37:59;96568.56;;;16.93;nan
34328;BME280;20588;48.840;10.064;2022-12-31T14:40:40;96562.50;;;16.82;nan
34328;BME280;20588;48.840;10.064;2022-12-31T14:51:49;96566.72;;;16.62;nan
34328;BME280;20588;48.840;10.064;2022-12-31T14:54:26;96566.59;;;16.47;nan
34328;BME280;20588;48.840;10.064;2022-12-31T14:56:52;96560.94;;;16.28;nan
34328;BME280;20588;48.840;10.064;2022-12-31T14:59:24;96574.03;;;16.16;nan
34328;BME280;20588;48.840;10.064;2022-12-31T15:01:51;96571.50;;;16.21;nan
34328;BME280;20588;48.840;10.064;2022-12-31T15:04:30;96570.91;;;16.14;nan
34328;BME280;20588;48.840;10.064;2022-12-31T15:07:05;96571.81;;;16.03;nan
34328;BME280;20588;48.840;10.064;2022-12-31T15:10:19;96562.94;;;15.99;nan
34328;BME280;20588;48.840;10.064;2022-12-31T15:13:01;96571.81;;;16.03;nan
34328;BME280;20588;48.840;10.064;2022-12-31T15:23:39;96574.03;;;15.52;nan
34328;BME280;20588;48.840;10.064;2022-12-31T15:26:23;96580.97;;;15.46;nan
34328;BME280;20588;48.840;10.064;2022-12-31T15:29:21;96574.34;;;15.39;nan
34328;BME280;20588;48.840;10.064;2022-12-31T15:31:48;96579.38;;;15.29;nan
34328;BME280;20588;48.840;10.064;2022-12-31T15:34:35;96577.88;;;15.16;nan
34328;BME280;20588;48.840;10.064;2022-12-31T15:37:05;96578.28;;;15.08;nan
34328;BME280;20588;48.840;10.064;2022-12-31T15:41:59;96578.91;;;14.99;nan
34328;BME280;20588;48.840;10.064;2022-12-31T15:47:28;96581.59;;;15.04;nan
34328;BME280;20588;48.840;10.064;2022-12-31T15:49:55;96586.91;;;15.14;nan
34328;BME280;20588;48.840;10.064;2022-12-31T15:52:41;96586.69;;;15.15;nan
34328;BME280;20588;48.840;10.064;2022-12-31T15:55:18;96587.25;;;15.17;nan
34328;BME280;20588;48.840;10.064;2022-12-31T15:57:46;96584.00;;;15.27;nan
34328;BME280;20588;48.840;10.064;2022-12-31T16:00:19;96586.22;;;15.18;nan
34328;BME280;20588;48.840;10.064;2022-12-31T16:02:47;96583.47;;;15.08;nan
34328;BME280;20588;48.840;10.064;2022-12-31T16:05:20;96578.91;;;14.99;nan
34328;BME280;20588;48.840;10.064;2022-12-31T16:07:47;96587.53;;;14.88;nan
34328;BME280;20588;48.840;10.064;2022-12-31T16:10:26;96588.19;;;14.78;nan
34328;BME280;20588;48.840;10.064;2022-12-31T16:12:55;96585.97;;;14.70;nan
34328;BME280;20588;48.840;10.064;2022-12-31T16:15:29;96589.72;;;14.63;nan
34328;BME280;20588;48.840;10.064;2022-12-31T16:18:05;96587.81;;;14.58;nan
34328;BME280;20588;48.840;10.064;2022-12-31T16:20:32;96582.78;;;14.52;nan
34328;BME280;20588;48.840;10.064;2022-12-31T16:23:00;96586.63;;;14.49;nan
34328;BME280;20588;48.840;10.064;2022-12-31T16:25:29;96591.72;;;14.44;nan
34328;BME280;20588;48.840;10.064;2022-12-31T16:27:56;96591.13;;;14.42;nan
34328;BME280;20588;48.840;10.064;2022-12-31T16:30:27;96595.00;;;14.39;nan
34328;BME280;20588;48.840;10.064;2022-12-31T16:32:57;96594.19;;;14.39;nan
34328;BME280;20588;48.840;10.064;2022-12-31T16:38:11;96600.03;;;14.46;nan
34328;BME280;20588;48.840;10.064;2022-12-31T16:40:39;96597.97;;;14.48;nan
34328;BME280;20588;48.840;10.064;2022-12-31T16:43:23;96604.19;;;14.47;nan
34328;BME280;20588;48.840;10.064;2022-12-31T16:45:49;96601.59;;;14.47;nan
34328;BME280;20588;48.840;10.064;2022-12-31T16:48:17;96603.16;;;14.48;nan
34328;BME280;20588;48.840;10.064;2022-12-31T16:50:52;96596.53;;;14.52;nan
34328;BME280;20588;48.840;10.064;2022-12-31T16:53:23;96597.22;;;14.48;nan
34328;BME280;20588;48.840;10.064;2022-12-31T16:55:56;96602.53;;;14.41;nan
34328;BME280;20588;48.840;10.064;2022-12-31T16:58:30;96602.53;;;14.41;nan
34328;BME280;20588;48.840;10.064;2022-12-31T17:03:47;96604.66;;;14.44;nan
34328;BME280;20588;48.840;10.064;2022-12-31T17:06:16;96597.59;;;14.39;nan
34328;BME280;20588;48.840;10.064;2022-12-31T17:09:09;96592.06;;;14.36;nan
34328;BME280;20588;48.840;10.064;2022-12-31T17:11:38;96597.16;;;14.31;nan
34328;BME280;20588;48.840;10.064;2022-12-31T17:16:36;96605.88;;;14.25;nan
34328;BME280;20588;48.840;10.064;2022-12-31T17:19:04;96605.16;;;14.18;nan
34328;BME280;20588;48.840;10.064;2022-12-31T17:21:31;96609.69;;;14.11;nan
34328;BME280;20588;48.840;10.064;2022-12-31T17:24:03;96613.19;;;14.05;nan
34328;BME280;20588;48.840;10.064;2022-12-31T17:26:35;96614.34;;;13.97;nan
34328;BME280;20588;48.840;10.064;2022-12-31T17:29:03;96606.47;;;13.92;nan